createdAt,value
2017-04-11T00:00:04.073Z,74.02
2017-04-11T00:00:08.299Z,74.02
2017-04-11T00:00:12.742Z,73.92
2017-04-11T00:00:17.046Z,73.92
2017-04-11T00:00:21.352Z,74.4
2017-04-11T00:00:25.777Z,74.21
2017-04-11T00:00:30.199Z,74.4
2017-04-11T00:00:34.504Z,74.4
2017-04-11T00:00:38.814Z,74.21
2017-04-11T00:00:43.247Z,74.4
2017-04-11T00:00:47.595Z,74.4
2017-04-11T00:00:52.019Z,74.49
2017-04-11T00:00:56.322Z,74.59
2017-04-11T00:01:00.752Z,74.59
2017-04-11T00:01:05.180Z,74.11
2017-04-11T00:01:09.613Z,74.49
2017-04-11T00:01:14.050Z,74.59
2017-04-11T00:01:18.485Z,74.21
2017-04-11T00:01:22.954Z,74.21
2017-04-11T00:01:27.268Z,74.11
2017-04-11T00:01:31.698Z,74.11
2017-04-11T00:01:36.125Z,74.11
2017-04-11T00:01:40.559Z,74.59
2017-04-11T00:01:45.007Z,74.3
2017-04-11T00:01:49.311Z,74.11
2017-04-11T00:01:53.736Z,74.21
2017-04-11T00:01:58.156Z,74.11
2017-04-11T00:02:02.585Z,74.11
2017-04-11T00:02:07.029Z,74.11
2017-04-11T00:02:11.455Z,74.11
2017-04-11T00:02:15.883Z,74.3
2017-04-11T00:02:20.190Z,73.54
2017-04-11T00:02:24.504Z,73.63
2017-04-11T00:02:28.937Z,73.73
2017-04-11T00:02:33.248Z,73.83
2017-04-11T00:02:37.576Z,74.02
2017-04-11T00:02:42.011Z,73.73
2017-04-11T00:02:46.328Z,73.54
2017-04-11T00:02:50.801Z,73.83
2017-04-11T00:02:55.235Z,74.02
2017-04-11T00:02:59.666Z,73.63
2017-04-11T00:03:04.078Z,73.73
2017-04-11T00:03:08.513Z,73.83
2017-04-11T00:03:12.957Z,73.63
2017-04-11T00:03:17.273Z,73.83
2017-04-11T00:03:21.706Z,73.83
2017-04-11T00:03:25.901Z,73.63
2017-04-11T00:03:30.343Z,73.54
2017-04-11T00:03:34.545Z,73.44
2017-04-11T00:03:38.865Z,73.63
2017-04-11T00:03:43.308Z,73.44
2017-04-11T00:03:47.734Z,73.44
2017-04-11T00:03:52.159Z,73.54
2017-04-11T00:03:56.596Z,73.54
2017-04-11T00:04:01.030Z,73.35
2017-04-11T00:04:05.455Z,73.35
2017-04-11T00:04:09.761Z,73.73
2017-04-11T00:04:14.197Z,73.73
2017-04-11T00:04:18.626Z,73.63
2017-04-11T00:04:22.934Z,73.73
2017-04-11T00:04:27.361Z,73.92
2017-04-11T00:04:31.794Z,73.73
2017-04-11T00:04:36.110Z,74.21
2017-04-11T00:04:40.299Z,73.92
2017-04-11T00:04:44.606Z,74.21
2017-04-11T00:04:49.034Z,74.49
2017-04-11T00:04:53.468Z,74.3
2017-04-11T00:04:57.893Z,74.21
2017-04-11T00:05:02.205Z,74.4
2017-04-11T00:05:06.634Z,74.59
2017-04-11T00:05:10.945Z,74.49
2017-04-11T00:05:15.264Z,75.07
2017-04-11T00:05:19.708Z,75.07
2017-04-11T00:05:24.022Z,74.88
2017-04-11T00:05:28.449Z,74.88
2017-04-11T00:05:32.766Z,74.98
2017-04-11T00:05:37.075Z,74.98
2017-04-11T00:05:41.392Z,74.98
2017-04-11T00:05:45.480Z,75.07
2017-04-11T00:05:49.667Z,74.88
2017-04-11T00:05:54.089Z,74.69
2017-04-11T00:05:58.405Z,74.98
2017-04-11T00:06:03.111Z,74.69
2017-04-11T00:06:07.425Z,74.98
2017-04-11T00:06:11.737Z,74.78
2017-04-11T00:06:16.165Z,74.78
2017-04-11T00:06:20.470Z,74.88
2017-04-11T00:06:24.789Z,74.78
2017-04-11T00:06:29.219Z,74.88
2017-04-11T00:06:33.534Z,75.07
2017-04-11T00:06:37.962Z,75.16
2017-04-11T00:06:42.157Z,75.26
2017-04-11T00:06:46.356Z,75.07
2017-04-11T00:06:50.786Z,74.88
2017-04-11T00:06:55.214Z,74.98
2017-04-11T00:06:59.526Z,74.78
2017-04-11T00:07:03.762Z,75.26
2017-04-11T00:07:08.199Z,75.35
2017-04-11T00:07:12.635Z,74.98
2017-04-11T00:07:16.953Z,75.45
2017-04-11T00:07:21.264Z,75.16
2017-04-11T00:07:25.573Z,74.88
2017-04-11T00:07:30.010Z,75.45
2017-04-11T00:07:34.330Z,75.26
2017-04-11T00:07:38.653Z,75.16
2017-04-11T00:07:43.093Z,75.35
2017-04-11T00:07:47.539Z,75.54
2017-04-11T00:07:51.859Z,75.74
2017-04-11T00:07:56.057Z,75.64
2017-04-11T00:08:00.378Z,75.64
2017-04-11T00:08:04.696Z,75.64
2017-04-11T00:08:08.908Z,75.54
2017-04-11T00:08:13.226Z,75.54
2017-04-11T00:08:17.654Z,75.54
2017-04-11T00:08:21.981Z,75.45
2017-04-11T00:08:26.312Z,75.6
2017-04-11T00:08:30.742Z,75.6
2017-04-11T00:08:35.174Z,76.31
2017-04-11T00:08:39.503Z,75.98
2017-04-11T00:08:43.945Z,76.08
2017-04-11T00:08:48.140Z,75.83
2017-04-11T00:08:52.575Z,76.03
2017-04-11T00:08:57.022Z,75.32
2017-04-11T00:09:01.107Z,76.5
2017-04-11T00:09:05.503Z,76.37
2017-04-11T00:09:09.926Z,76.12
2017-04-11T00:09:14.357Z,76.31
2017-04-11T00:09:18.790Z,76.12
2017-04-11T00:09:23.110Z,75.89
2017-04-11T00:09:27.418Z,76.27
2017-04-11T00:09:31.853Z,76.69
2017-04-11T00:09:35.816Z,75.98
2017-04-11T00:09:40.125Z,76.75
2017-04-11T00:09:44.550Z,77.08
2017-04-11T00:09:48.979Z,77.51
2017-04-11T00:09:53.208Z,76.88
2017-04-11T00:09:57.401Z,76.84
2017-04-11T00:10:01.704Z,77.13
2017-04-11T00:10:06.034Z,76.94
2017-04-11T00:10:10.382Z,77.13
2017-04-11T00:10:14.697Z,76.94
2017-04-11T00:10:19.121Z,77.42
2017-04-11T00:10:23.327Z,77.42
2017-04-11T00:10:27.749Z,77.32
2017-04-11T00:10:31.711Z,76.94
2017-04-11T00:10:35.790Z,77.42
2017-04-11T00:10:40.107Z,77.03
2017-04-11T00:10:44.532Z,76.75
2017-04-11T00:10:48.725Z,76.84
2017-04-11T00:10:52.920Z,76.94
2017-04-11T00:10:57.234Z,76.94
2017-04-11T00:11:01.665Z,76.84
2017-04-11T00:11:06.194Z,77.03
2017-04-11T00:11:10.514Z,76.46
2017-04-11T00:11:14.945Z,76.75
2017-04-11T00:11:19.385Z,76.65
2017-04-11T00:11:23.574Z,76.84
2017-04-11T00:11:27.995Z,77.03
2017-04-11T00:11:32.420Z,77.03
2017-04-11T00:11:36.613Z,77.03
2017-04-11T00:11:40.917Z,77.42
2017-04-11T00:11:45.342Z,77.42
2017-04-11T00:11:49.774Z,77.32
2017-04-11T00:11:54.245Z,77.13
2017-04-11T00:11:58.673Z,77.13
2017-04-11T00:12:03.102Z,77.32
2017-04-11T00:12:07.411Z,77.42
2017-04-11T00:12:11.850Z,77.7
2017-04-11T00:12:16.275Z,77.23
2017-04-11T00:12:20.581Z,77.03
2017-04-11T00:12:24.895Z,77.03
2017-04-11T00:12:29.317Z,77.23
2017-04-11T00:12:33.742Z,77.42
2017-04-11T00:12:38.050Z,77.23
2017-04-11T00:12:42.481Z,77.32
2017-04-11T00:12:46.909Z,77.13
2017-04-11T00:12:51.328Z,77.51
2017-04-11T00:12:55.756Z,77.61
2017-04-11T00:13:00.181Z,77.8
2017-04-11T00:13:04.804Z,77.32
2017-04-11T00:13:08.991Z,77.8
2017-04-11T00:13:13.418Z,77.51
2017-04-11T00:13:17.853Z,77.51
2017-04-11T00:13:22.172Z,77.8
2017-04-11T00:13:26.487Z,77.51
2017-04-11T00:13:30.908Z,77.42
2017-04-11T00:13:35.332Z,77.61
2017-04-11T00:13:39.645Z,77.8
2017-04-11T00:13:43.827Z,78.18
2017-04-11T00:13:48.132Z,77.61
2017-04-11T00:13:52.611Z,77.7
2017-04-11T00:13:56.814Z,77.7
2017-04-11T00:14:01.236Z,77.61
2017-04-11T00:14:05.792Z,77.99
2017-04-11T00:14:10.232Z,78.37
2017-04-11T00:14:14.651Z,77.8
2017-04-11T00:14:19.075Z,78.09
2017-04-11T00:14:23.496Z,78.37
2017-04-11T00:14:27.926Z,77.99
2017-04-11T00:14:32.352Z,77.99
2017-04-11T00:14:36.654Z,77.8
2017-04-11T00:14:41.085Z,78.47
2017-04-11T00:14:45.506Z,78.47
2017-04-11T00:14:49.927Z,78.56
2017-04-11T00:14:54.348Z,78.37
2017-04-11T00:14:58.778Z,78.28
2017-04-11T00:15:03.138Z,78.56
2017-04-11T00:15:07.574Z,78.09
2017-04-11T00:15:12.007Z,78.37
2017-04-11T00:15:16.469Z,78.09
2017-04-11T00:15:20.900Z,78.09
2017-04-11T00:15:25.320Z,77.99
2017-04-11T00:15:29.751Z,78.28
2017-04-11T00:15:34.184Z,78.47
2017-04-11T00:15:38.372Z,78.56
2017-04-11T00:15:42.801Z,78.47
2017-04-11T00:15:47.233Z,78.18
2017-04-11T00:15:51.693Z,78.47
2017-04-11T00:15:56.121Z,78.37
2017-04-11T00:16:00.551Z,78.56
2017-04-11T00:16:05.233Z,78.37
2017-04-11T00:16:09.421Z,78.47
2017-04-11T00:16:13.848Z,78.37
2017-04-11T00:16:18.033Z,78.56
2017-04-11T00:16:22.459Z,78.47
2017-04-11T00:16:26.769Z,78.66
2017-04-11T00:16:31.196Z,78.66
2017-04-11T00:16:35.389Z,78.09
2017-04-11T00:16:39.699Z,78.28
2017-04-11T00:16:44.121Z,77.99
2017-04-11T00:16:48.429Z,77.99
2017-04-11T00:16:52.851Z,77.99
2017-04-11T00:16:57.319Z,77.42
2017-04-11T00:17:01.945Z,77.51
2017-04-11T00:17:06.255Z,77.32
2017-04-11T00:17:10.568Z,77.32
2017-04-11T00:17:15.034Z,77.42
2017-04-11T00:17:19.343Z,77.7
2017-04-11T00:17:23.759Z,77.23
2017-04-11T00:17:28.073Z,77.23
2017-04-11T00:17:32.386Z,77.23
2017-04-11T00:17:36.822Z,77.23
2017-04-11T00:17:41.140Z,77.03
2017-04-11T00:17:45.580Z,77.32
2017-04-11T00:17:49.998Z,77.32
2017-04-11T00:17:54.422Z,77.03
2017-04-11T00:17:58.846Z,77.23
2017-04-11T00:18:03.425Z,77.32
2017-04-11T00:18:07.853Z,77.32
2017-04-11T00:18:12.040Z,77.23
2017-04-11T00:18:16.354Z,77.23
2017-04-11T00:18:20.844Z,77.32
2017-04-11T00:18:25.274Z,77.23
2017-04-11T00:18:29.703Z,77.23
2017-04-11T00:18:34.126Z,77.32
2017-04-11T00:18:38.480Z,77.8
2017-04-11T00:18:42.786Z,77.61
2017-04-11T00:18:47.212Z,77.51
2017-04-11T00:18:51.646Z,77.23
2017-04-11T00:18:56.081Z,77.61
2017-04-11T00:19:00.508Z,77.42
2017-04-11T00:19:05.084Z,77.8
2017-04-11T00:19:09.512Z,77.51
2017-04-11T00:19:13.853Z,77.7
2017-04-11T00:19:18.043Z,77.7
2017-04-11T00:19:22.468Z,77.32
2017-04-11T00:19:26.898Z,77.42
2017-04-11T00:19:31.354Z,77.51
2017-04-11T00:19:35.549Z,77.8
2017-04-11T00:19:39.973Z,77.7
2017-04-11T00:19:44.283Z,77.61
2017-04-11T00:19:48.712Z,77.51
2017-04-11T00:19:53.132Z,77.51
2017-04-11T00:19:57.561Z,77.61
2017-04-11T00:20:01.760Z,77.42
2017-04-11T00:20:06.196Z,77.7
2017-04-11T00:20:10.385Z,77.99
2017-04-11T00:20:14.810Z,77.89
2017-04-11T00:20:19.241Z,77.89
2017-04-11T00:20:23.673Z,77.89
2017-04-11T00:20:27.978Z,78.09
2017-04-11T00:20:32.406Z,78.09
2017-04-11T00:20:36.839Z,78.47
2017-04-11T00:20:41.146Z,78.28
2017-04-11T00:20:45.459Z,78.18
2017-04-11T00:20:49.885Z,78.47
2017-04-11T00:20:54.318Z,78.66
2017-04-11T00:20:58.625Z,78.09
2017-04-11T00:21:03.244Z,78.66
2017-04-11T00:21:07.675Z,78.47
2017-04-11T00:21:12.119Z,78.28
2017-04-11T00:21:16.422Z,78.28
2017-04-11T00:21:20.855Z,78.28
2017-04-11T00:21:25.203Z,78.47
2017-04-11T00:21:29.628Z,78.28
2017-04-11T00:21:33.933Z,78.09
2017-04-11T00:21:38.362Z,78.66
2017-04-11T00:21:42.676Z,78.47
2017-04-11T00:21:46.862Z,78.47
2017-04-11T00:21:51.175Z,78.28
2017-04-11T00:21:55.603Z,78.28
2017-04-11T00:22:00.066Z,78.37
2017-04-11T00:22:04.524Z,78.66
2017-04-11T00:22:08.833Z,78.37
2017-04-11T00:22:13.264Z,78.37
2017-04-11T00:22:17.694Z,78.66
2017-04-11T00:22:22.113Z,78.37
2017-04-11T00:22:26.538Z,77.89
2017-04-11T00:22:30.976Z,78.47
2017-04-11T00:22:35.171Z,78.37
2017-04-11T00:22:39.598Z,78.28
2017-04-11T00:22:44.017Z,78.37
2017-04-11T00:22:48.206Z,78.28
2017-04-11T00:22:52.632Z,78.37
2017-04-11T00:22:57.050Z,78.28
2017-04-11T00:23:01.827Z,78.18
2017-04-11T00:23:06.256Z,78.66
2017-04-11T00:23:10.564Z,78.37
2017-04-11T00:23:14.992Z,78.56
2017-04-11T00:23:19.308Z,78.28
2017-04-11T00:23:23.732Z,78.47
2017-04-11T00:23:28.158Z,78.66
2017-04-11T00:23:32.463Z,78.56
2017-04-11T00:23:36.777Z,78.37
2017-04-11T00:23:41.079Z,78.47
2017-04-11T00:23:45.505Z,78.37
2017-04-11T00:23:49.931Z,78.28
2017-04-11T00:23:54.355Z,78.37
2017-04-11T00:23:58.684Z,78.18
2017-04-11T00:24:03.178Z,77.89
2017-04-11T00:24:07.368Z,77.89
2017-04-11T00:24:11.797Z,77.89
2017-04-11T00:24:16.228Z,77.51
2017-04-11T00:24:20.649Z,77.89
2017-04-11T00:24:25.075Z,78.18
2017-04-11T00:24:29.376Z,77.99
2017-04-11T00:24:33.801Z,77.8
2017-04-11T00:24:38.221Z,77.89
2017-04-11T00:24:42.647Z,77.57
2017-04-11T00:24:47.069Z,77.32
2017-04-11T00:24:51.500Z,77.8
2017-04-11T00:24:55.919Z,77.8
2017-04-11T00:25:00.341Z,77.51
2017-04-11T00:25:04.654Z,77.57
2017-04-11T00:25:09.080Z,77.51
2017-04-11T00:25:13.506Z,77.7
2017-04-11T00:25:17.929Z,77.61
2017-04-11T00:25:22.238Z,77.7
2017-04-11T00:25:26.583Z,77.7
2017-04-11T00:25:31.002Z,77.23
2017-04-11T00:25:35.429Z,77.61
2017-04-11T00:25:39.732Z,77.47
2017-04-11T00:25:44.161Z,77.51
2017-04-11T00:25:48.472Z,77.51
2017-04-11T00:25:52.907Z,77.28
2017-04-11T00:25:57.216Z,77.32
2017-04-11T00:26:01.852Z,77.57
2017-04-11T00:26:06.162Z,77.7
2017-04-11T00:26:10.469Z,77.8
2017-04-11T00:26:14.898Z,77.61
2017-04-11T00:26:19.323Z,77.42
2017-04-11T00:26:23.629Z,77.47
2017-04-11T00:26:28.050Z,77.67
2017-04-11T00:26:32.481Z,77.67
2017-04-11T00:26:36.905Z,77.7
2017-04-11T00:26:41.216Z,77.8
2017-04-11T00:26:45.642Z,77.76
2017-04-11T00:26:50.074Z,77.57
2017-04-11T00:26:54.505Z,77.42
2017-04-11T00:26:58.927Z,77.47
2017-04-11T00:27:03.451Z,77.42
2017-04-11T00:27:07.646Z,77.47
2017-04-11T00:27:12.095Z,77.51
2017-04-11T00:27:16.524Z,77.42
2017-04-11T00:27:20.954Z,77.38
2017-04-11T00:27:25.379Z,77.61
2017-04-11T00:27:29.805Z,77.38
2017-04-11T00:27:34.228Z,77.51
2017-04-11T00:27:38.539Z,77.38
2017-04-11T00:27:42.964Z,77.38
2017-04-11T00:27:47.264Z,77.28
2017-04-11T00:27:51.682Z,77.38
2017-04-11T00:27:55.987Z,77.47
2017-04-11T00:28:00.411Z,77.28
2017-04-11T00:28:04.934Z,77.51
2017-04-11T00:28:09.239Z,77.67
2017-04-11T00:28:13.662Z,77.61
2017-04-11T00:28:17.979Z,77.28
2017-04-11T00:28:22.402Z,77.28
2017-04-11T00:28:26.827Z,77.57
2017-04-11T00:28:31.261Z,77.8
2017-04-11T00:28:35.566Z,77.57
2017-04-11T00:28:39.985Z,77.89
2017-04-11T00:28:44.409Z,77.57
2017-04-11T00:28:48.873Z,77.23
2017-04-11T00:28:53.182Z,77.51
2017-04-11T00:28:57.374Z,77.57
2017-04-11T00:29:01.799Z,77.8
2017-04-11T00:29:06.218Z,77.61
2017-04-11T00:29:10.642Z,77.57
2017-04-11T00:29:15.066Z,77.38
2017-04-11T00:29:19.389Z,77.61
2017-04-11T00:29:23.815Z,77.47
2017-04-11T00:29:28.238Z,77.57
2017-04-11T00:29:32.671Z,77.47
2017-04-11T00:29:37.094Z,77.57
2017-04-11T00:29:41.513Z,77.42
2017-04-11T00:29:45.950Z,77.57
2017-04-11T00:29:50.136Z,77.57
2017-04-11T00:29:54.566Z,77.47
2017-04-11T00:29:58.874Z,77.38
2017-04-11T00:30:03.485Z,77.38
2017-04-11T00:30:07.793Z,77.38
2017-04-11T00:30:12.222Z,77.38
2017-04-11T00:30:16.534Z,77.95
2017-04-11T00:30:20.960Z,77.89
2017-04-11T00:30:25.389Z,77.95
2017-04-11T00:30:29.812Z,77.86
2017-04-11T00:30:34.233Z,78.05
2017-04-11T00:30:38.311Z,78.14
2017-04-11T00:30:42.617Z,78.05
2017-04-11T00:30:46.922Z,78.23
2017-04-11T00:30:51.347Z,78.33
2017-04-11T00:30:55.667Z,78.52
2017-04-11T00:30:59.977Z,78.72
2017-04-11T00:31:04.654Z,78.52
2017-04-11T00:31:08.976Z,78.81
2017-04-11T00:31:13.410Z,79.19
2017-04-11T00:31:17.880Z,79.1
2017-04-11T00:31:22.311Z,79.33
2017-04-11T00:31:26.616Z,79.1
2017-04-11T00:31:31.092Z,79.38
2017-04-11T00:31:35.525Z,79
2017-04-11T00:31:39.827Z,79.1
2017-04-11T00:31:44.259Z,79.71
2017-04-11T00:31:48.604Z,79.77
2017-04-11T00:31:53.029Z,79.48
2017-04-11T00:31:57.217Z,79.19
2017-04-11T00:32:01.650Z,80.05
2017-04-11T00:32:06.095Z,79.96
2017-04-11T00:32:10.399Z,80.15
2017-04-11T00:32:14.718Z,79.77
2017-04-11T00:32:19.152Z,79.96
2017-04-11T00:32:23.628Z,79.77
2017-04-11T00:32:28.049Z,80.05
2017-04-11T00:32:32.473Z,80.15
2017-04-11T00:32:36.900Z,79.77
2017-04-11T00:32:41.338Z,80.24
2017-04-11T00:32:45.527Z,79.96
2017-04-11T00:32:49.955Z,79.96
2017-04-11T00:32:54.391Z,79.9
2017-04-11T00:32:58.699Z,80.05
2017-04-11T00:33:03.123Z,80.43
2017-04-11T00:33:07.551Z,80.15
2017-04-11T00:33:11.879Z,79.86
2017-04-11T00:33:16.217Z,80.33
2017-04-11T00:33:20.643Z,80.62
2017-04-11T00:33:25.069Z,80.53
2017-04-11T00:33:29.498Z,80.91
2017-04-11T00:33:33.928Z,81.01
2017-04-11T00:33:38.353Z,80.95
2017-04-11T00:33:42.665Z,81.1
2017-04-11T00:33:47.092Z,80.62
2017-04-11T00:33:51.526Z,80.62
2017-04-11T00:33:55.962Z,80.81
2017-04-11T00:34:00.389Z,81.24
2017-04-11T00:34:04.704Z,80.72
2017-04-11T00:34:09.018Z,81.2
2017-04-11T00:34:13.329Z,81.58
2017-04-11T00:34:17.757Z,81.1
2017-04-11T00:34:22.182Z,81.58
2017-04-11T00:34:26.609Z,82.15
2017-04-11T00:34:31.034Z,81.86
2017-04-11T00:34:35.460Z,81.86
2017-04-11T00:34:39.648Z,82.19
2017-04-11T00:34:44.075Z,82.95
2017-04-11T00:34:48.496Z,81.96
2017-04-11T00:34:52.928Z,82.15
2017-04-11T00:34:57.357Z,81.86
2017-04-11T00:35:01.803Z,81.9
2017-04-11T00:35:06.099Z,81.96
2017-04-11T00:35:10.411Z,82.06
2017-04-11T00:35:14.838Z,82.19
2017-04-11T00:35:19.278Z,81.86
2017-04-11T00:35:23.592Z,81.96
2017-04-11T00:35:28.013Z,82.06
2017-04-11T00:35:32.448Z,81.96
2017-04-11T00:35:36.756Z,81.86
2017-04-11T00:35:41.182Z,82.15
2017-04-11T00:35:45.604Z,82.19
2017-04-11T00:35:49.928Z,82.15
2017-04-11T00:35:54.347Z,82.72
2017-04-11T00:35:58.420Z,82.06
2017-04-11T00:36:03.006Z,82.57
2017-04-11T00:36:07.318Z,82.53
2017-04-11T00:36:11.623Z,82.43
2017-04-11T00:36:16.045Z,82.53
2017-04-11T00:36:20.472Z,82.63
2017-04-11T00:36:24.900Z,82.82
2017-04-11T00:36:29.328Z,82.72
2017-04-11T00:36:33.754Z,82.53
2017-04-11T00:36:37.948Z,82.63
2017-04-11T00:36:42.381Z,82.91
2017-04-11T00:36:46.812Z,82.86
2017-04-11T00:36:51.235Z,83.2
2017-04-11T00:36:55.666Z,82.91
2017-04-11T00:37:00.098Z,83.24
2017-04-11T00:37:04.411Z,82.72
2017-04-11T00:37:08.723Z,82.48
2017-04-11T00:37:13.155Z,82.72
2017-04-11T00:37:17.582Z,82.43
2017-04-11T00:37:22.004Z,82.82
2017-04-11T00:37:26.431Z,83.01
2017-04-11T00:37:30.864Z,83.2
2017-04-11T00:37:35.286Z,82.63
2017-04-11T00:37:39.592Z,83.01
2017-04-11T00:37:43.915Z,82.72
2017-04-11T00:37:48.119Z,82.72
2017-04-11T00:37:52.550Z,82.63
2017-04-11T00:37:56.982Z,82.53
2017-04-11T00:38:01.406Z,82.67
2017-04-11T00:38:05.832Z,82.72
2017-04-11T00:38:10.266Z,83.29
2017-04-11T00:38:14.744Z,82.82
2017-04-11T00:38:19.168Z,84.06
2017-04-11T00:38:23.598Z,83.58
2017-04-11T00:38:28.028Z,83.67
2017-04-11T00:38:32.460Z,83.67
2017-04-11T00:38:36.651Z,83.29
2017-04-11T00:38:40.953Z,82.91
2017-04-11T00:38:45.151Z,82.72
2017-04-11T00:38:49.624Z,82.72
2017-04-11T00:38:54.048Z,82.24
2017-04-11T00:38:58.469Z,82.82
2017-04-11T00:39:02.893Z,82.53
2017-04-11T00:39:07.320Z,82.72
2017-04-11T00:39:11.755Z,82.63
2017-04-11T00:39:16.183Z,82.53
2017-04-11T00:39:20.381Z,82.91
2017-04-11T00:39:24.861Z,83.01
2017-04-11T00:39:29.286Z,83.11
2017-04-11T00:39:33.712Z,82.82
2017-04-11T00:39:38.139Z,83.39
2017-04-11T00:39:42.448Z,83.2
2017-04-11T00:39:46.873Z,84.06
2017-04-11T00:39:51.306Z,83.29
2017-04-11T00:39:55.735Z,83.2
2017-04-11T00:40:00.168Z,82.72
2017-04-11T00:40:04.652Z,83.01
2017-04-11T00:40:09.087Z,83.11
2017-04-11T00:40:13.513Z,83.11
2017-04-11T00:40:17.835Z,83.2
2017-04-11T00:40:22.261Z,83.39
2017-04-11T00:40:26.568Z,83.01
2017-04-11T00:40:31.036Z,82.91
2017-04-11T00:40:35.454Z,83.01
2017-04-11T00:40:39.763Z,82.72
2017-04-11T00:40:44.093Z,83.2
2017-04-11T00:40:48.403Z,82.72
2017-04-11T00:40:52.837Z,83.01
2017-04-11T00:40:57.144Z,83.58
2017-04-11T00:41:01.578Z,82.91
2017-04-11T00:41:06.016Z,83.29
2017-04-11T00:41:10.441Z,83.01
2017-04-11T00:41:14.861Z,82.76
2017-04-11T00:41:19.178Z,82.15
2017-04-11T00:41:23.607Z,82.09
2017-04-11T00:41:28.035Z,81.86
2017-04-11T00:41:32.456Z,81.67
2017-04-11T00:41:36.767Z,81.96
2017-04-11T00:41:41.232Z,81.62
2017-04-11T00:41:45.661Z,81.67
2017-04-11T00:41:50.090Z,81.52
2017-04-11T00:41:54.535Z,81.58
2017-04-11T00:41:59.298Z,81.77
2017-04-11T00:42:03.982Z,81.48
2017-04-11T00:42:08.423Z,81.77
2017-04-11T00:42:12.734Z,81.52
2017-04-11T00:42:17.040Z,81.58
2017-04-11T00:42:21.468Z,81.58
2017-04-11T00:42:25.907Z,81.71
2017-04-11T00:42:30.383Z,81.67
2017-04-11T00:42:34.809Z,81.67
2017-04-11T00:42:39.239Z,81.58
2017-04-11T00:42:43.683Z,81.86
2017-04-11T00:42:48.114Z,81.96
2017-04-11T00:42:52.551Z,82.15
2017-04-11T00:42:56.978Z,81.86
2017-04-11T00:43:01.407Z,82
2017-04-11T00:43:05.651Z,82.24
2017-04-11T00:43:10.076Z,81.86
2017-04-11T00:43:14.513Z,82.15
2017-04-11T00:43:18.707Z,82.15
2017-04-11T00:43:23.141Z,82.19
2017-04-11T00:43:27.576Z,82.34
2017-04-11T00:43:32.025Z,82.06
2017-04-11T00:43:36.348Z,82.06
2017-04-11T00:43:40.655Z,81.96
2017-04-11T00:43:45.090Z,82.06
2017-04-11T00:43:49.523Z,82.06
2017-04-11T00:43:53.719Z,81.96
2017-04-11T00:43:58.031Z,82.06
2017-04-11T00:44:02.662Z,82.06
2017-04-11T00:44:06.855Z,82.15
2017-04-11T00:44:11.172Z,82.15
2017-04-11T00:44:15.621Z,82.06
2017-04-11T00:44:20.063Z,81.96
2017-04-11T00:44:24.498Z,81.96
2017-04-11T00:44:28.932Z,81.58
2017-04-11T00:44:33.365Z,81.29
2017-04-11T00:44:37.681Z,81.48
2017-04-11T00:44:42.112Z,81.1
2017-04-11T00:44:46.537Z,80.81
2017-04-11T00:44:50.841Z,80.53
2017-04-11T00:44:55.266Z,80.53
2017-04-11T00:44:59.719Z,79.96
2017-04-11T00:45:04.204Z,79.57
2017-04-11T00:45:08.638Z,79.86
2017-04-11T00:45:12.950Z,79.67
2017-04-11T00:45:17.379Z,79.48
2017-04-11T00:45:21.808Z,79.38
2017-04-11T00:45:26.229Z,79.67
2017-04-11T00:45:30.310Z,79.57
2017-04-11T00:45:34.743Z,79
2017-04-11T00:45:39.170Z,79.28
2017-04-11T00:45:43.368Z,78.62
2017-04-11T00:45:47.795Z,78.72
2017-04-11T00:45:52.028Z,78.05
2017-04-11T00:45:56.452Z,78.33
2017-04-11T00:46:00.877Z,78.23
2017-04-11T00:46:05.306Z,78.33
2017-04-11T00:46:09.624Z,78.33
2017-04-11T00:46:14.051Z,78.52
2017-04-11T00:46:18.475Z,78.33
2017-04-11T00:46:22.677Z,78.43
2017-04-11T00:46:27.120Z,78.33
2017-04-11T00:46:31.549Z,78.23
2017-04-11T00:46:35.856Z,78.23
2017-04-11T00:46:40.163Z,78.23
2017-04-11T00:46:44.590Z,78.52
2017-04-11T00:46:49.016Z,78.23
2017-04-11T00:46:53.444Z,78.33
2017-04-11T00:46:58.010Z,78.52
2017-04-11T00:47:02.585Z,78.33
2017-04-11T00:47:07.012Z,78.62
2017-04-11T00:47:11.456Z,78.05
2017-04-11T00:47:15.893Z,78.33
2017-04-11T00:47:20.209Z,78.62
2017-04-11T00:47:24.403Z,78.91
2017-04-11T00:47:28.833Z,78.72
2017-04-11T00:47:33.185Z,78.91
2017-04-11T00:47:37.614Z,78.91
2017-04-11T00:47:41.921Z,78.72
2017-04-11T00:47:46.363Z,78.72
2017-04-11T00:47:50.610Z,78.91
2017-04-11T00:47:54.929Z,78.62
2017-04-11T00:47:59.366Z,78.81
2017-04-11T00:48:03.803Z,78.91
2017-04-11T00:48:08.123Z,78.91
2017-04-11T00:48:12.552Z,78.05
2017-04-11T00:48:16.869Z,78.33
2017-04-11T00:48:21.345Z,78.52
2017-04-11T00:48:25.781Z,78.14
2017-04-11T00:48:30.092Z,78.05
2017-04-11T00:48:34.529Z,78.33
2017-04-11T00:48:38.849Z,77.95
2017-04-11T00:48:43.272Z,77.95
2017-04-11T00:48:47.706Z,77.95
2017-04-11T00:48:52.139Z,77.95
2017-04-11T00:48:56.577Z,77.67
2017-04-11T00:49:01.010Z,77.86
2017-04-11T00:49:05.440Z,77.95
2017-04-11T00:49:09.768Z,77.76
2017-04-11T00:49:14.023Z,77.28
2017-04-11T00:49:18.346Z,77.67
2017-04-11T00:49:22.797Z,77.28
2017-04-11T00:49:27.233Z,77
2017-04-11T00:49:31.663Z,76.9
2017-04-11T00:49:36.095Z,76.71
2017-04-11T00:49:40.529Z,77.09
2017-04-11T00:49:44.722Z,77
2017-04-11T00:49:49.035Z,77
2017-04-11T00:49:53.110Z,77.38
2017-04-11T00:49:57.542Z,77.09
2017-04-11T00:50:01.970Z,77.09
2017-04-11T00:50:06.176Z,77.09
2017-04-11T00:50:10.486Z,77.09
2017-04-11T00:50:14.914Z,77.28
2017-04-11T00:50:19.342Z,77.28
2017-04-11T00:50:23.764Z,77.28
2017-04-11T00:50:28.186Z,77.09
2017-04-11T00:50:32.654Z,77.09
2017-04-11T00:50:36.734Z,77.28
2017-04-11T00:50:41.161Z,77.57
2017-04-11T00:50:45.585Z,77.09
2017-04-11T00:50:50.017Z,77.57
2017-04-11T00:50:54.449Z,77.38
2017-04-11T00:50:58.753Z,77.38
2017-04-11T00:51:03.065Z,77.47
2017-04-11T00:51:07.541Z,77.28
2017-04-11T00:51:11.850Z,77.47
2017-04-11T00:51:16.281Z,77.38
2017-04-11T00:51:20.712Z,77.38
2017-04-11T00:51:25.167Z,77.57
2017-04-11T00:51:29.596Z,77.28
2017-04-11T00:51:34.019Z,77.57
2017-04-11T00:51:38.442Z,77.47
2017-04-11T00:51:42.863Z,77.47
2017-04-11T00:51:47.180Z,77.67
2017-04-11T00:51:51.500Z,77.57
2017-04-11T00:51:55.824Z,77.57
2017-04-11T00:52:00.127Z,77.57
2017-04-11T00:52:04.581Z,77.47
2017-04-11T00:52:09.003Z,77.57
2017-04-11T00:52:13.320Z,77.47
2017-04-11T00:52:17.627Z,77.86
2017-04-11T00:52:22.052Z,77.67
2017-04-11T00:52:26.358Z,77.67
2017-04-11T00:52:30.785Z,77.67
2017-04-11T00:52:35.090Z,77.67
2017-04-11T00:52:39.517Z,77.86
2017-04-11T00:52:43.942Z,77.76
2017-04-11T00:52:48.251Z,77.95
2017-04-11T00:52:52.675Z,77.86
2017-04-11T00:52:57.102Z,77.76
2017-04-11T00:53:01.527Z,77.76
2017-04-11T00:53:05.977Z,77.76
2017-04-11T00:53:10.409Z,78.05
2017-04-11T00:53:14.843Z,78.05
2017-04-11T00:53:19.272Z,78.05
2017-04-11T00:53:23.705Z,78.23
2017-04-11T00:53:28.015Z,78.72
2017-04-11T00:53:32.327Z,78.14
2017-04-11T00:53:36.637Z,78.14
2017-04-11T00:53:41.069Z,78.52
2017-04-11T00:53:45.497Z,78.43
2017-04-11T00:53:49.917Z,78.62
2017-04-11T00:53:54.344Z,78.14
2017-04-11T00:53:58.789Z,78.43
2017-04-11T00:54:03.098Z,78.52
2017-04-11T00:54:07.409Z,78.43
2017-04-11T00:54:11.718Z,78.33
2017-04-11T00:54:16.148Z,78.33
2017-04-11T00:54:20.575Z,78.52
2017-04-11T00:54:25.011Z,78.72
2017-04-11T00:54:29.440Z,79.28
2017-04-11T00:54:33.635Z,78.81
2017-04-11T00:54:37.940Z,78.81
2017-04-11T00:54:42.377Z,78.81
2017-04-11T00:54:46.685Z,78.91
2017-04-11T00:54:51.134Z,79.19
2017-04-11T00:54:55.564Z,79.1
2017-04-11T00:54:59.999Z,79.19
2017-04-11T00:55:04.561Z,79.28
2017-04-11T00:55:08.885Z,78.72
2017-04-11T00:55:13.309Z,79.48
2017-04-11T00:55:17.735Z,79.28
2017-04-11T00:55:22.160Z,79.1
2017-04-11T00:55:26.467Z,79
2017-04-11T00:55:30.891Z,79.1
2017-04-11T00:55:35.312Z,78.52
2017-04-11T00:55:39.737Z,78.72
2017-04-11T00:55:44.175Z,78.81
2017-04-11T00:55:48.605Z,78.81
2017-04-11T00:55:53.033Z,78.33
2017-04-11T00:55:57.456Z,77.57
2017-04-11T00:56:01.937Z,77.95
2017-04-11T00:56:06.361Z,78.05
2017-04-11T00:56:10.787Z,77.86
2017-04-11T00:56:15.211Z,77.47
2017-04-11T00:56:19.523Z,77.95
2017-04-11T00:56:23.945Z,77.76
2017-04-11T00:56:28.372Z,77.95
2017-04-11T00:56:32.805Z,77.47
2017-04-11T00:56:37.269Z,77.28
2017-04-11T00:56:41.695Z,77.38